createdAt,value
2018-10-12T00:01:13.034Z,101374.11
2018-10-12T00:03:42.245Z,101375.54
2018-10-12T00:06:11.515Z,101379.45
2018-10-12T00:08:40.997Z,101382.30
2018-10-12T00:11:10.208Z,101377.01
2018-10-12T00:13:39.352Z,101383.23
2018-10-12T00:16:08.525Z,101383.47
2018-10-12T00:18:37.730Z,101391.82
2018-10-12T00:21:06.909Z,101390.44
2018-10-12T00:23:36.096Z,101390.86
2018-10-12T00:26:05.328Z,101384.75
2018-10-12T00:28:34.512Z,101388.41
2018-10-12T00:31:03.660Z,101391.78
2018-10-12T00:33:32.829Z,101396.41
2018-10-12T00:36:02.094Z,101400.90
2018-10-12T00:38:31.295Z,101403.44
2018-10-12T00:41:00.420Z,101395.36
2018-10-12T00:43:29.613Z,101409.44
2018-10-12T00:45:58.821Z,101420.42
2018-10-12T00:48:28.001Z,101421.03
2018-10-12T00:50:57.221Z,101427.55
2018-10-12T00:53:26.383Z,101407.95
2018-10-12T00:55:55.509Z,101422.16
2018-10-12T00:58:24.703Z,101413.41
2018-10-12T01:00:53.973Z,101415.15
2018-10-12T01:03:23.121Z,101416.77
2018-10-12T01:05:52.296Z,101415.88
2018-10-12T01:08:21.500Z,101413.65
2018-10-12T01:10:50.695Z,101417.30
2018-10-12T01:13:19.948Z,101420.23
2018-10-12T01:15:49.163Z,101422.77
2018-10-12T01:18:18.376Z,101421.42
2018-10-12T01:20:47.680Z,101413.64
2018-10-12T01:23:16.817Z,101423.16
2018-10-12T01:25:46.016Z,101419.47
2018-10-12T01:28:15.202Z,101420.88
2018-10-12T01:30:44.454Z,101421.11
2018-10-12T01:33:13.633Z,101417.16
2018-10-12T01:35:42.850Z,101420.50
2018-10-12T01:38:11.985Z,101421.42
2018-10-12T01:40:41.176Z,101413.77
2018-10-12T01:43:10.354Z,101414.30
2018-10-12T01:45:39.563Z,101415.42
2018-10-12T01:48:08.750Z,101404.95
2018-10-12T01:50:37.928Z,101415.42
2018-10-12T01:53:07.171Z,101417.80
2018-10-12T01:55:36.385Z,101413.69
2018-10-12T01:58:05.497Z,101422.95
2018-10-12T02:00:34.728Z,101426.91
2018-10-12T02:03:03.886Z,101432.67
2018-10-12T02:05:33.158Z,101426.48
2018-10-12T02:08:02.347Z,101424.69
2018-10-12T02:10:31.577Z,101420.49
2018-10-12T02:13:00.765Z,101417.95
2018-10-12T02:15:30.038Z,101421.41
2018-10-12T02:17:59.196Z,101431.16
2018-10-12T02:20:28.368Z,101436.08
2018-10-12T02:22:57.547Z,101434.63
2018-10-12T02:25:26.692Z,101448.84
2018-10-12T02:27:55.885Z,101441.08
2018-10-12T02:30:25.108Z,101436.73
2018-10-12T02:32:54.244Z,101442.34
2018-10-12T02:35:23.482Z,101440.82
2018-10-12T02:37:52.572Z,101447.47
2018-10-12T02:40:21.697Z,101440.51
2018-10-12T02:42:50.992Z,101450.44
2018-10-12T02:45:20.174Z,101454.75
2018-10-12T02:47:49.322Z,101454.44
2018-10-12T02:50:18.521Z,101450.88
2018-10-12T02:52:47.654Z,101450.24
2018-10-12T02:55:17.047Z,101452.37
2018-10-12T02:57:46.245Z,101449.67
2018-10-12T03:00:15.376Z,101456.50
2018-10-12T03:02:44.679Z,101456.78
2018-10-12T03:05:13.797Z,101453.45
2018-10-12T03:07:44.011Z,101449.60
2018-10-12T03:10:13.226Z,101444.31
2018-10-12T03:12:42.538Z,101439.73
2018-10-12T03:15:11.816Z,101436.25
2018-10-12T03:17:41.080Z,101436.20
2018-10-12T03:20:10.318Z,101439.30
2018-10-12T03:22:39.470Z,101437.69
2018-10-12T03:25:08.789Z,101438.85
2018-10-12T03:27:49.189Z,101448.05
2018-10-12T03:30:18.721Z,101448.89
2018-10-12T03:32:48.173Z,101451.98
2018-10-12T03:35:17.551Z,101445.36
2018-10-12T03:37:46.743Z,101443.20
2018-10-12T03:40:15.979Z,101443.11
2018-10-12T03:42:45.183Z,101450.64
2018-10-12T03:45:14.463Z,101452.65
2018-10-12T03:47:43.647Z,101453.33
2018-10-12T03:50:12.937Z,101454.77
2018-10-12T03:52:42.090Z,101460.68
2018-10-12T03:55:11.443Z,101464.00
2018-10-12T03:57:40.592Z,101473.73
2018-10-12T04:00:09.835Z,101476.02
2018-10-12T04:02:39.760Z,101475.02
2018-10-12T04:05:09.073Z,101479.23
2018-10-12T04:07:38.222Z,101480.27
2018-10-12T04:10:07.424Z,101488.55
2018-10-12T04:12:36.619Z,101495.36
2018-10-12T04:15:05.826Z,101489.45
2018-10-12T04:17:35.031Z,101486.27
2018-10-12T04:20:04.288Z,101488.42
2018-10-12T04:22:33.381Z,101483.05
2018-10-12T04:25:02.550Z,101496.80
2018-10-12T04:27:31.728Z,101505.40
2018-10-12T04:30:00.876Z,101505.40
2018-10-12T04:32:30.948Z,101497.33
2018-10-12T04:35:00.061Z,101492.36
2018-10-12T04:37:29.217Z,101494.55
2018-10-12T04:40:02.644Z,101490.30
2018-10-12T04:42:31.800Z,101497.14
2018-10-12T04:45:01.004Z,101504.08
2018-10-12T04:47:31.764Z,101507.62
2018-10-12T04:50:01.777Z,101500.98
2018-10-12T04:52:32.320Z,101501.46
2018-10-12T04:55:01.525Z,101507.90
2018-10-12T04:57:30.629Z,101505.12
2018-10-12T04:59:59.853Z,101506.65
2018-10-12T05:02:29.056Z,101504.27
2018-10-12T05:04:58.280Z,101504.59
2018-10-12T05:07:27.501Z,101513.38
2018-10-12T05:09:56.777Z,101512.46
2018-10-12T05:12:25.888Z,101520.45
2018-10-12T05:14:55.041Z,101540.06
2018-10-12T05:17:24.232Z,101553.00
2018-10-12T05:19:53.428Z,101558.89
2018-10-12T05:22:22.597Z,101575.33
2018-10-12T05:24:51.746Z,101578.64
2018-10-12T05:27:20.876Z,101579.37
2018-10-12T05:29:50.058Z,101575.97
2018-10-12T05:32:19.224Z,101580.83
2018-10-12T05:34:48.384Z,101596.31
2018-10-12T05:37:17.551Z,101598.39
2018-10-12T05:39:46.702Z,101599.20
2018-10-12T05:42:15.888Z,101605.02
2018-10-12T05:44:45.019Z,101609.36
2018-10-12T05:47:14.206Z,101606.23
2018-10-12T05:49:56.009Z,101604.48
2018-10-12T05:52:25.198Z,101612.76
2018-10-12T05:54:54.504Z,101610.50
2018-10-12T05:57:23.769Z,101612.38
2018-10-12T05:59:53.004Z,101621.44
2018-10-12T06:02:22.454Z,101629.80
2018-10-12T06:04:51.685Z,101638.38
2018-10-12T06:07:20.884Z,101642.34
2018-10-12T06:09:50.520Z,101651.23
2018-10-12T06:12:19.710Z,101656.61
2018-10-12T06:14:48.924Z,101658.24
2018-10-12T06:17:18.099Z,101658.45
2018-10-12T06:19:47.300Z,101665.27
2018-10-12T06:22:16.472Z,101668.06
2018-10-12T06:24:45.596Z,101664.88
2018-10-12T06:27:14.740Z,101673.97
2018-10-12T06:29:43.910Z,101677.48
2018-10-12T06:32:13.078Z,101675.41
2018-10-12T06:34:42.185Z,101689.66
2018-10-12T06:37:11.373Z,101690.64
2018-10-12T06:39:40.495Z,101694.56
2018-10-12T06:42:09.683Z,101697.12
2018-10-12T06:44:38.844Z,101699.91
2018-10-12T06:47:08.589Z,101704.67
2018-10-12T06:49:37.771Z,101719.45
2018-10-12T06:52:06.933Z,101721.30
2018-10-12T06:54:36.103Z,101723.45
2018-10-12T06:57:05.287Z,101725.63
2018-10-12T06:59:34.557Z,101727.85
2018-10-12T07:02:03.840Z,101719.94
2018-10-12T07:04:33.110Z,101718.47
2018-10-12T07:07:02.335Z,101714.36
2018-10-12T07:09:31.476Z,101722.31
2018-10-12T07:12:00.617Z,101727.34
2018-10-12T07:14:30.033Z,101727.61
2018-10-12T07:16:59.210Z,101730.44
2018-10-12T07:19:28.390Z,101734.66
2018-10-12T07:21:57.577Z,101736.64
2018-10-12T07:24:26.682Z,101742.30
2018-10-12T07:26:55.784Z,101749.33
2018-10-12T07:29:25.227Z,101752.48
2018-10-12T07:31:54.127Z,101752.81
2018-10-12T07:34:23.310Z,101753.66
2018-10-12T07:36:52.535Z,101762.34
2018-10-12T07:39:21.704Z,101761.59
2018-10-12T07:41:51.187Z,101768.30
2018-10-12T07:44:20.386Z,101760.58
2018-10-12T07:46:49.653Z,101765.06
2018-10-12T07:49:18.856Z,101772.81
2018-10-12T07:51:48.027Z,101763.71
2018-10-12T07:54:17.165Z,101770.60
2018-10-12T07:56:46.364Z,101773.79
2018-10-12T07:59:15.621Z,101777.27
2018-10-12T08:01:44.817Z,101774.08
2018-10-12T08:04:13.957Z,101786.84
2018-10-12T08:06:43.184Z,101796.44
2018-10-12T08:09:12.385Z,101806.50
2018-10-12T08:11:41.536Z,101807.91
2018-10-12T08:14:10.821Z,101812.86
2018-10-12T08:16:40.024Z,101815.23
2018-10-12T08:19:11.752Z,101812.70
2018-10-12T08:21:40.902Z,101819.42
2018-10-12T08:24:10.042Z,101826.59
2018-10-12T08:26:39.208Z,101828.80
2018-10-12T08:29:08.328Z,101816.23
2018-10-12T08:31:37.612Z,101825.75
2018-10-12T08:34:06.781Z,101829.23
2018-10-12T08:36:36.017Z,101831.30
2018-10-12T08:39:08.347Z,101833.02
2018-10-12T08:41:37.663Z,101836.72
2018-10-12T08:44:06.852Z,101838.41
2018-10-12T08:46:36.108Z,101838.37
2018-10-12T08:49:06.025Z,101837.59
2018-10-12T08:51:35.820Z,101838.95
2018-10-12T08:54:04.996Z,101846.11
2018-10-12T08:56:34.139Z,101843.26
2018-10-12T08:59:03.333Z,101842.54
2018-10-12T09:01:32.522Z,101849.52
2018-10-12T09:04:01.678Z,101851.72
2018-10-12T09:06:30.817Z,101848.02
2018-10-12T09:09:00.717Z,101850.95
2018-10-12T09:11:29.901Z,101853.27
2018-10-12T09:13:59.109Z,101852.03
2018-10-12T09:16:28.351Z,101858.16
2018-10-12T09:18:57.452Z,101862.61
2018-10-12T09:21:26.601Z,101866.97
2018-10-12T09:23:55.701Z,101870.52
2018-10-12T09:26:24.875Z,101866.27
2018-10-12T09:28:54.180Z,101861.92
2018-10-12T09:31:23.336Z,101862.81
2018-10-12T09:33:52.672Z,101867.46
2018-10-12T09:36:21.893Z,101864.73
2018-10-12T09:38:51.049Z,101866.12
2018-10-12T09:41:20.267Z,101863.80
2018-10-12T09:43:49.403Z,101865.20
2018-10-12T09:46:18.591Z,101863.05
2018-10-12T09:48:48.928Z,101866.08
2018-10-12T09:51:18.062Z,101869.94
2018-10-12T09:53:47.193Z,101866.16
2018-10-12T09:56:16.413Z,101863.19
2018-10-12T09:58:45.583Z,101858.58
2018-10-12T10:01:19.832Z,101866.02
2018-10-12T10:03:54.239Z,101867.94
2018-10-12T10:06:23.403Z,101868.23
2018-10-12T10:08:52.600Z,101869.89
2018-10-12T10:11:21.738Z,101866.63
2018-10-12T10:13:51.258Z,101863.89
2018-10-12T10:16:20.456Z,101872.66
2018-10-12T10:18:49.604Z,101873.47
2018-10-12T10:21:19.265Z,101870.48
2018-10-12T10:23:48.686Z,101868.55
2018-10-12T10:26:17.848Z,101869.91
2018-10-12T10:28:47.137Z,101873.48
2018-10-12T10:31:16.312Z,101871.53
2018-10-12T10:33:45.532Z,101866.03
2018-10-12T10:36:14.703Z,101865.48
2018-10-12T10:38:43.886Z,101865.47
2018-10-12T10:41:13.000Z,101867.91
2018-10-12T10:43:42.184Z,101870.09
2018-10-12T10:46:11.381Z,101856.06
2018-10-12T10:48:40.477Z,101855.50
2018-10-12T10:51:09.760Z,101851.96
2018-10-12T10:53:39.063Z,101853.84
2018-10-12T10:56:08.297Z,101857.35
2018-10-12T10:58:37.736Z,101858.92
2018-10-12T11:01:06.960Z,101851.77
2018-10-12T11:03:36.081Z,101856.43
2018-10-12T11:06:05.225Z,101862.64
2018-10-12T11:08:34.416Z,101859.87
2018-10-12T11:11:03.597Z,101861.19
2018-10-12T11:13:32.700Z,101864.80
2018-10-12T11:16:01.970Z,101858.72
2018-10-12T11:18:31.107Z,101855.36
2018-10-12T11:21:00.283Z,101859.07
2018-10-12T11:23:29.462Z,101853.57
2018-10-12T11:25:58.692Z,101852.12
2018-10-12T11:28:27.898Z,101839.50
2018-10-12T11:30:57.136Z,101831.86
2018-10-12T11:33:26.249Z,101826.84
2018-10-12T11:35:55.411Z,101827.33
2018-10-12T11:38:25.711Z,101827.18
2018-10-12T11:40:54.846Z,101839.17
2018-10-12T11:43:34.332Z,101847.14
2018-10-12T11:46:03.525Z,101840.77
2018-10-12T11:48:32.756Z,101845.02
2018-10-12T11:51:02.205Z,101844.87
2018-10-12T11:53:31.596Z,101842.54
2018-10-12T11:56:00.754Z,101846.19
2018-10-12T11:58:29.912Z,101850.27
2018-10-12T12:00:59.153Z,101849.05
2018-10-12T12:03:28.290Z,101843.42
2018-10-12T12:05:57.482Z,101839.00
2018-10-12T12:08:26.608Z,101839.53
2018-10-12T12:10:55.740Z,101835.25
2018-10-12T12:13:25.327Z,101832.70
2018-10-12T12:15:54.492Z,101825.96
2018-10-12T12:18:30.325Z,101821.47
2018-10-12T12:20:59.498Z,101823.69
2018-10-12T12:23:28.588Z,101822.62
2018-10-12T12:25:57.756Z,101825.18
2018-10-12T12:28:27.018Z,101824.03
2018-10-12T12:30:56.137Z,101832.31
2018-10-12T12:33:25.336Z,101830.86
2018-10-12T12:35:54.859Z,101829.72
2018-10-12T12:38:23.606Z,101828.41
2018-10-12T12:40:52.800Z,101832.51
2018-10-12T12:43:21.905Z,101838.05
2018-10-12T12:45:51.012Z,101836.04
2018-10-12T12:48:20.535Z,101838.09
2018-10-12T12:50:49.361Z,101840.67
2018-10-12T12:53:18.549Z,101843.64
2018-10-12T12:55:47.729Z,101841.38
2018-10-12T12:58:16.845Z,101842.98
2018-10-12T13:00:46.151Z,101847.69
2018-10-12T13:03:15.687Z,101849.19
2018-10-12T13:05:44.829Z,101851.67
2018-10-12T13:08:14.032Z,101854.42
2018-10-12T13:10:43.156Z,101856.70
2018-10-12T13:13:12.287Z,101852.17
2018-10-12T13:15:41.423Z,101851.15
2018-10-12T13:18:10.607Z,101864.91
2018-10-12T13:20:39.692Z,101862.42
2018-10-12T13:23:08.804Z,101857.88
2018-10-12T13:25:38.037Z,101866.90
2018-10-12T13:28:07.182Z,101870.98
2018-10-12T13:30:36.329Z,101870.14
2018-10-12T13:33:05.501Z,101869.25
2018-10-12T13:35:35.053Z,101869.34
2018-10-12T13:38:04.269Z,101870.76
2018-10-12T13:40:33.404Z,101870.27
2018-10-12T13:43:02.556Z,101871.88
2018-10-12T13:45:31.669Z,101867.16
2018-10-12T13:48:00.757Z,101870.76
2018-10-12T13:50:30.318Z,101875.32
2018-10-12T13:52:59.467Z,101878.50
2018-10-12T13:55:28.921Z,101876.52
2018-10-12T13:57:58.068Z,101867.93
2018-10-12T14:00:27.216Z,101872.67
2018-10-12T14:02:56.429Z,101872.13
2018-10-12T14:05:25.696Z,101877.71
2018-10-12T14:07:54.900Z,101872.52
2018-10-12T14:10:24.195Z,101871.14
2018-10-12T14:12:53.269Z,101873.97
2018-10-12T14:15:22.676Z,101871.87
2018-10-12T14:17:51.815Z,101879.38
2018-10-12T14:20:20.984Z,101878.28
2018-10-12T14:22:50.148Z,101878.05
2018-10-12T14:25:19.428Z,101878.23
2018-10-12T14:27:48.517Z,101882.45
2018-10-12T14:30:17.692Z,101876.85
2018-10-12T14:32:47.616Z,101883.75
2018-10-12T14:35:17.069Z,101881.91
2018-10-12T14:37:46.297Z,101879.55
2018-10-12T14:40:15.459Z,101884.83
2018-10-12T14:42:44.651Z,101878.50
2018-10-12T14:45:13.839Z,101879.31
2018-10-12T14:47:43.045Z,101882.59
2018-10-12T14:50:12.290Z,101877.16
2018-10-12T14:52:41.671Z,101879.91
2018-10-12T14:55:10.843Z,101881.02
2018-10-12T14:57:40.001Z,101874.86
2018-10-12T15:00:09.883Z,101882.84
2018-10-12T15:02:39.020Z,101878.25
2018-10-12T15:05:08.242Z,101868.13
2018-10-12T15:07:37.452Z,101869.50
2018-10-12T15:10:06.563Z,101868.45
2018-10-12T15:12:35.838Z,101869.61
2018-10-12T15:15:19.016Z,101868.58
2018-10-12T15:17:49.127Z,101864.02
2018-10-12T15:20:18.355Z,101872.27
2018-10-12T15:22:47.532Z,101873.96
2018-10-12T15:25:16.706Z,101879.00
2018-10-12T15:27:46.039Z,101882.34
2018-10-12T15:30:15.785Z,101885.09
2018-10-12T15:32:45.004Z,101889.84
2018-10-12T15:35:14.168Z,101899.47
2018-10-12T15:37:43.983Z,101902.01
2018-10-12T15:40:13.129Z,101904.31
2018-10-12T15:42:42.309Z,101900.83
2018-10-12T15:45:11.432Z,101908.27
2018-10-12T15:47:40.603Z,101902.03
2018-10-12T15:50:10.286Z,101905.63
2018-10-12T15:52:40.405Z,101904.02
2018-10-12T15:55:10.164Z,101903.24
2018-10-12T15:57:40.157Z,101898.32
2018-10-12T16:00:09.852Z,101895.60
2018-10-12T16:02:39.841Z,101899.19
2018-10-12T16:05:09.643Z,101898.38
2018-10-12T16:07:39.329Z,101903.55
2018-10-12T16:10:09.064Z,101902.45
2018-10-12T16:12:38.983Z,101903.81
2018-10-12T16:15:08.169Z,101902.98
2018-10-12T16:17:37.325Z,101905.42
2018-10-12T16:20:06.603Z,101899.65
2018-10-12T16:22:35.801Z,101901.55
2018-10-12T16:25:16.173Z,101896.61
2018-10-12T16:27:45.374Z,101898.70
2018-10-12T16:30:14.511Z,101894.85
2018-10-12T16:32:43.758Z,101897.52
2018-10-12T16:35:12.932Z,101895.57
2018-10-12T16:37:42.039Z,101908.03
2018-10-12T16:40:11.154Z,101903.37
2018-10-12T16:42:40.331Z,101907.97
2018-10-12T16:45:09.468Z,101901.87
2018-10-12T16:47:38.611Z,101897.41
2018-10-12T16:50:07.853Z,101900.61
2018-10-12T16:52:37.019Z,101898.11
2018-10-12T16:55:06.191Z,101900.52
2018-10-12T16:57:36.067Z,101909.14
2018-10-12T17:00:05.943Z,101900.11
2018-10-12T17:02:35.086Z,101912.53
2018-10-12T17:05:04.341Z,101917.94
2018-10-12T17:07:33.496Z,101911.33
2018-10-12T17:10:02.640Z,101916.12
2018-10-12T17:12:32.884Z,101919.09
2018-10-12T17:15:02.028Z,101911.64
2018-10-12T17:17:31.760Z,101914.02
2018-10-12T17:20:00.946Z,101916.12
2018-10-12T17:22:30.120Z,101917.39
2018-10-12T17:24:59.409Z,101915.16
2018-10-12T17:27:28.521Z,101926.44
2018-10-12T17:29:57.655Z,101925.50
2018-10-12T17:32:26.865Z,101926.79
2018-10-12T17:34:56.282Z,101929.22
2018-10-12T17:37:25.499Z,101928.63
2018-10-12T17:39:54.717Z,101927.94
2018-10-12T17:42:24.832Z,101925.69
2018-10-12T17:44:54.089Z,101932.89
2018-10-12T17:47:23.287Z,101933.41
2018-10-12T17:49:52.564Z,101933.03
2018-10-12T17:52:21.870Z,101928.61
2018-10-12T17:54:51.101Z,101939.20
2018-10-12T17:57:22.449Z,101936.69
2018-10-12T17:59:52.245Z,101935.73
2018-10-12T18:02:21.561Z,101934.37
2018-10-12T18:04:50.692Z,101933.01
2018-10-12T18:07:19.893Z,101932.41
2018-10-12T18:09:49.076Z,101938.32
2018-10-12T18:12:18.167Z,101941.47
2018-10-12T18:14:47.343Z,101935.56
2018-10-12T18:17:16.485Z,101938.99
2018-10-12T18:19:46.434Z,101941.91
2018-10-12T18:22:15.676Z,101940.47
2018-10-12T18:24:44.814Z,101935.50
2018-10-12T18:27:13.967Z,101942.50
2018-10-12T18:29:43.172Z,101939.22
2018-10-12T18:32:12.349Z,101939.69
2018-10-12T18:34:41.505Z,101933.39
2018-10-12T18:37:10.684Z,101934.45
2018-10-12T18:39:39.773Z,101935.17
2018-10-12T18:42:08.933Z,101929.90
2018-10-12T18:44:38.128Z,101933.92
2018-10-12T18:47:07.435Z,101936.13
2018-10-12T18:49:36.649Z,101941.75
2018-10-12T18:52:06.691Z,101937.63
2018-10-12T18:54:35.873Z,101939.20
2018-10-12T18:57:05.125Z,101937.33
2018-10-12T18:59:34.354Z,101941.05
2018-10-12T19:02:03.469Z,101940.19
2018-10-12T19:04:33.118Z,101940.30
2018-10-12T19:07:02.363Z,101942.11
2018-10-12T19:09:31.513Z,101937.12
2018-10-12T19:12:00.667Z,101937.84
2018-10-12T19:14:29.836Z,101937.27
2018-10-12T19:16:58.978Z,101933.39
2018-10-12T19:19:28.180Z,101934.75
2018-10-12T19:21:57.271Z,101934.35
2018-10-12T19:24:26.451Z,101937.83
2018-10-12T19:26:55.630Z,101936.96
2018-10-12T19:29:24.766Z,101939.56
2018-10-12T19:31:53.986Z,101935.80
2018-10-12T19:34:23.122Z,101935.66
2018-10-12T19:36:52.317Z,101939.18
2018-10-12T19:39:21.532Z,101939.86
2018-10-12T19:41:50.747Z,101941.22
2018-10-12T19:44:19.936Z,101946.80
2018-10-12T19:46:49.091Z,101955.16
2018-10-12T19:49:18.200Z,101952.98
2018-10-12T19:51:47.553Z,101954.34
2018-10-12T19:54:16.701Z,101954.59
2018-10-12T19:56:45.877Z,101954.84
2018-10-12T19:59:15.198Z,101958.00
2018-10-12T20:01:44.339Z,101961.56
2018-10-12T20:04:13.460Z,101958.61
2018-10-12T20:06:42.732Z,101960.02
2018-10-12T20:09:12.513Z,101963.13
2018-10-12T20:11:42.256Z,101968.45
2018-10-12T20:14:11.396Z,101973.58
2018-10-12T20:16:40.567Z,101968.97
2018-10-12T20:19:10.041Z,101975.45
2018-10-12T20:21:39.207Z,101976.41
2018-10-12T20:24:08.811Z,101977.61
2018-10-12T20:26:37.931Z,101981.53
2018-10-12T20:29:07.105Z,101977.06
2018-10-12T20:31:36.471Z,101983.27
2018-10-12T20:34:05.613Z,101982.89
2018-10-12T20:36:34.760Z,101982.83
2018-10-12T20:39:04.841Z,101983.13
2018-10-12T20:41:33.974Z,101984.73
2018-10-12T20:44:03.109Z,101983.13
2018-10-12T20:46:32.343Z,101985.39
2018-10-12T20:49:01.568Z,101990.91
2018-10-12T20:51:30.768Z,101991.91
2018-10-12T20:54:00.990Z,101991.28
2018-10-12T20:56:30.144Z,101993.40
2018-10-12T20:58:59.309Z,101992.98
2018-10-12T21:01:28.446Z,101988.64
2018-10-12T21:03:57.642Z,101995.06
2018-10-12T21:06:26.834Z,101990.58
2018-10-12T21:08:56.029Z,101991.62
2018-10-12T21:11:25.822Z,101992.41
2018-10-12T21:13:56.417Z,101984.16
2018-10-12T21:16:25.670Z,101991.62
2018-10-12T21:18:54.816Z,101992.47
2018-10-12T21:21:24.008Z,101983.44
2018-10-12T21:23:53.333Z,101985.84
2018-10-12T21:26:22.666Z,101989.64
2018-10-12T21:28:51.800Z,101991.75
2018-10-12T21:31:21.032Z,101986.63
2018-10-12T21:33:50.186Z,101989.03
2018-10-12T21:36:19.354Z,101991.14
2018-10-12T21:38:48.686Z,101985.15
2018-10-12T21:41:17.891Z,101983.67
2018-10-12T21:43:47.029Z,101985.02
2018-10-12T21:46:16.219Z,101992.85
2018-10-12T21:48:45.434Z,101990.81
2018-10-12T21:51:14.553Z,101994.33
2018-10-12T21:53:43.735Z,102002.95
2018-10-12T21:56:12.944Z,101998.58
2018-10-12T21:58:42.152Z,101995.80
2018-10-12T22:01:11.295Z,101987.61
2018-10-12T22:03:46.131Z,101990.02
2018-10-12T22:06:15.324Z,101995.38
2018-10-12T22:08:49.762Z,101996.97
2018-10-12T22:11:18.896Z,101992.53
2018-10-12T22:13:48.164Z,101985.39
2018-10-12T22:16:17.257Z,101982.75
2018-10-12T22:18:46.412Z,101975.40
2018-10-12T22:21:15.568Z,101977.06
2018-10-12T22:23:44.697Z,101976.52
2018-10-12T22:26:13.961Z,101975.91
2018-10-12T22:28:43.156Z,101976.14
2018-10-12T22:31:12.288Z,101977.87
2018-10-12T22:33:41.583Z,101976.41
2018-10-12T22:36:10.932Z,101973.94
2018-10-12T22:38:40.085Z,101974.74
2018-10-12T22:41:09.221Z,101971.83
2018-10-12T22:43:38.428Z,101970.17
2018-10-12T22:46:07.620Z,101975.59
2018-10-12T22:48:36.801Z,101975.29
2018-10-12T22:51:06.266Z,101971.52
2018-10-12T22:53:35.408Z,101973.69
2018-10-12T22:56:04.678Z,101971.52
2018-10-12T22:58:33.959Z,101969.39
2018-10-12T23:01:03.141Z,101967.28
2018-10-12T23:03:32.347Z,101971.95
2018-10-12T23:06:01.493Z,101968.58
2018-10-12T23:08:30.607Z,101969.27
2018-10-12T23:10:59.786Z,101969.23
2018-10-12T23:13:28.902Z,101966.36
2018-10-12T23:15:58.140Z,101967.92
2018-10-12T23:18:27.370Z,101965.45
2018-10-12T23:20:56.530Z,101967.34
2018-10-12T23:23:25.740Z,101964.88
2018-10-12T23:25:55.004Z,101972.77
2018-10-12T23:28:24.416Z,101973.31
2018-10-12T23:30:53.848Z,101967.58
2018-10-12T23:33:34.126Z,101968.94
2018-10-12T23:36:03.336Z,101970.11
2018-10-12T23:38:32.582Z,101964.39
2018-10-12T23:41:01.746Z,101971.11
2018-10-12T23:43:30.910Z,101971.34
2018-10-12T23:46:00.124Z,101971.52
2018-10-12T23:48:29.345Z,101973.00
2018-10-12T23:50:58.491Z,101977.25
2018-10-12T23:53:27.617Z,101970.17
2018-10-12T23:55:56.902Z,101970.47
2018-10-12T23:58:26.082Z,101975.46
